sensor_id;sensor_type;location;lat;lon;timestamp;P1;durP1;ratioP1;P2;durP2;ratioP2
39566;SDS011;25241;41.978;14.664;2022-10-16T00:00:27;15.55;;;6.07;;
39566;SDS011;25241;41.978;14.664;2022-10-16T00:02:55;16.08;;;5.97;;
39566;SDS011;25241;41.978;14.664;2022-10-16T00:05:23;16.80;;;6.32;;
39566;SDS011;25241;41.978;14.664;2022-10-16T00:07:49;16.95;;;6.45;;
39566;SDS011;25241;41.978;14.664;2022-10-16T00:10:17;18.27;;;6.20;;
39566;SDS011;25241;41.978;14.664;2022-10-16T00:12:42;16.85;;;7.05;;
39566;SDS011;25241;41.978;14.664;2022-10-16T00:15:08;13.95;;;6.45;;
39566;SDS011;25241;41.978;14.664;2022-10-16T00:17:34;16.92;;;6.22;;
39566;SDS011;25241;41.978;14.664;2022-10-16T00:20:00;12.93;;;5.97;;
39566;SDS011;25241;41.978;14.664;2022-10-16T00:22:25;16.25;;;5.28;;
39566;SDS011;25241;41.978;14.664;2022-10-16T00:24:51;10.90;;;5.30;;
39566;SDS011;25241;41.978;14.664;2022-10-16T00:27:19;14.93;;;6.00;;
39566;SDS011;25241;41.978;14.664;2022-10-16T00:29:48;14.63;;;6.18;;
39566;SDS011;25241;41.978;14.664;2022-10-16T00:32:18;16.40;;;5.50;;
39566;SDS011;25241;41.978;14.664;2022-10-16T00:34:44;20.02;;;6.43;;
39566;SDS011;25241;41.978;14.664;2022-10-16T00:37:10;15.80;;;5.90;;
39566;SDS011;25241;41.978;14.664;2022-10-16T00:39:36;19.10;;;6.22;;
39566;SDS011;25241;41.978;14.664;2022-10-16T00:42:04;19.02;;;7.00;;
39566;SDS011;25241;41.978;14.664;2022-10-16T00:47:19;11.98;;;5.35;;
39566;SDS011;25241;41.978;14.664;2022-10-16T00:50:08;16.70;;;5.72;;
39566;SDS011;25241;41.978;14.664;2022-10-16T00:52:36;17.08;;;5.78;;
39566;SDS011;25241;41.978;14.664;2022-10-16T00:55:05;16.08;;;5.75;;
39566;SDS011;25241;41.978;14.664;2022-10-16T00:57:31;17.02;;;6.25;;
39566;SDS011;25241;41.978;14.664;2022-10-16T00:59:57;14.77;;;5.45;;
39566;SDS011;25241;41.978;14.664;2022-10-16T01:02:23;13.07;;;6.35;;
39566;SDS011;25241;41.978;14.664;2022-10-16T01:04:50;13.57;;;5.07;;
39566;SDS011;25241;41.978;14.664;2022-10-16T01:10:34;13.77;;;5.07;;
39566;SDS011;25241;41.978;14.664;2022-10-16T01:18:08;17.42;;;5.30;;
39566;SDS011;25241;41.978;14.664;2022-10-16T01:28:40;13.77;;;5.85;;
39566;SDS011;25241;41.978;14.664;2022-10-16T01:31:10;16.55;;;6.22;;
39566;SDS011;25241;41.978;14.664;2022-10-16T01:33:41;15.63;;;6.38;;
39566;SDS011;25241;41.978;14.664;2022-10-16T01:36:10;20.90;;;7.65;;
39566;SDS011;25241;41.978;14.664;2022-10-16T01:38:41;12.10;;;5.47;;
39566;SDS011;25241;41.978;14.664;2022-10-16T01:41:16;17.50;;;6.10;;
39566;SDS011;25241;41.978;14.664;2022-10-16T01:43:51;18.73;;;6.40;;
39566;SDS011;25241;41.978;14.664;2022-10-16T01:46:24;18.38;;;6.63;;
39566;SDS011;25241;41.978;14.664;2022-10-16T01:48:50;19.08;;;6.18;;
39566;SDS011;25241;41.978;14.664;2022-10-16T01:51:17;16.40;;;5.43;;
39566;SDS011;25241;41.978;14.664;2022-10-16T01:53:44;16.13;;;5.88;;
39566;SDS011;25241;41.978;14.664;2022-10-16T01:58:41;13.77;;;5.20;;
39566;SDS011;25241;41.978;14.664;2022-10-16T02:01:17;14.30;;;5.05;;
39566;SDS011;25241;41.978;14.664;2022-10-16T02:03:48;15.30;;;5.43;;
39566;SDS011;25241;41.978;14.664;2022-10-16T02:06:17;15.57;;;6.20;;
39566;SDS011;25241;41.978;14.664;2022-10-16T02:08:43;17.10;;;5.30;;
39566;SDS011;25241;41.978;14.664;2022-10-16T02:11:09;17.63;;;5.72;;
39566;SDS011;25241;41.978;14.664;2022-10-16T02:13:38;19.13;;;6.90;;
39566;SDS011;25241;41.978;14.664;2022-10-16T02:16:12;15.90;;;5.40;;
39566;SDS011;25241;41.978;14.664;2022-10-16T02:18:39;14.00;;;5.22;;
39566;SDS011;25241;41.978;14.664;2022-10-16T02:27:15;13.63;;;5.38;;
39566;SDS011;25241;41.978;14.664;2022-10-16T02:29:45;16.52;;;6.28;;
39566;SDS011;25241;41.978;14.664;2022-10-16T02:32:15;13.45;;;5.47;;
39566;SDS011;25241;41.978;14.664;2022-10-16T02:34:43;24.23;;;6.25;;
39566;SDS011;25241;41.978;14.664;2022-10-16T02:37:09;15.85;;;6.00;;
39566;SDS011;25241;41.978;14.664;2022-10-16T02:39:35;14.65;;;5.15;;
39566;SDS011;25241;41.978;14.664;2022-10-16T02:42:02;15.98;;;6.35;;
39566;SDS011;25241;41.978;14.664;2022-10-16T02:44:28;14.73;;;5.88;;
39566;SDS011;25241;41.978;14.664;2022-10-16T02:46:53;12.60;;;5.30;;
39566;SDS011;25241;41.978;14.664;2022-10-16T02:49:19;16.60;;;5.78;;
39566;SDS011;25241;41.978;14.664;2022-10-16T02:51:45;20.50;;;5.07;;
39566;SDS011;25241;41.978;14.664;2022-10-16T02:54:10;12.75;;;5.57;;
39566;SDS011;25241;41.978;14.664;2022-10-16T02:56:36;16.45;;;5.07;;
39566;SDS011;25241;41.978;14.664;2022-10-16T02:59:01;14.23;;;4.60;;
39566;SDS011;25241;41.978;14.664;2022-10-16T03:01:29;11.00;;;4.63;;
39566;SDS011;25241;41.978;14.664;2022-10-16T03:03:55;11.60;;;5.55;;
39566;SDS011;25241;41.978;14.664;2022-10-16T03:06:20;11.90;;;5.03;;
39566;SDS011;25241;41.978;14.664;2022-10-16T03:08:49;17.38;;;6.38;;
39566;SDS011;25241;41.978;14.664;2022-10-16T03:11:14;16.08;;;5.03;;
39566;SDS011;25241;41.978;14.664;2022-10-16T03:13:40;11.05;;;5.35;;
39566;SDS011;25241;41.978;14.664;2022-10-16T03:16:08;12.13;;;5.00;;
39566;SDS011;25241;41.978;14.664;2022-10-16T03:18:36;10.75;;;4.47;;
39566;SDS011;25241;41.978;14.664;2022-10-16T03:21:04;10.70;;;4.70;;
39566;SDS011;25241;41.978;14.664;2022-10-16T03:23:29;14.90;;;4.85;;
39566;SDS011;25241;41.978;14.664;2022-10-16T03:25:57;10.38;;;4.55;;
39566;SDS011;25241;41.978;14.664;2022-10-16T03:28:24;18.45;;;5.90;;
39566;SDS011;25241;41.978;14.664;2022-10-16T03:30:49;14.35;;;5.75;;
39566;SDS011;25241;41.978;14.664;2022-10-16T03:33:17;11.23;;;4.35;;
39566;SDS011;25241;41.978;14.664;2022-10-16T03:35:43;15.82;;;5.65;;
39566;SDS011;25241;41.978;14.664;2022-10-16T03:38:16;11.00;;;4.28;;
39566;SDS011;25241;41.978;14.664;2022-10-16T03:40:42;19.92;;;5.50;;
39566;SDS011;25241;41.978;14.664;2022-10-16T03:43:07;15.90;;;5.72;;
39566;SDS011;25241;41.978;14.664;2022-10-16T03:45:35;15.38;;;5.75;;
39566;SDS011;25241;41.978;14.664;2022-10-16T03:48:01;15.38;;;5.80;;
39566;SDS011;25241;41.978;14.664;2022-10-16T03:50:28;13.45;;;5.75;;
39566;SDS011;25241;41.978;14.664;2022-10-16T03:52:56;15.32;;;6.15;;
39566;SDS011;25241;41.978;14.664;2022-10-16T03:55:22;17.33;;;6.43;;
39566;SDS011;25241;41.978;14.664;2022-10-16T03:57:48;11.77;;;4.78;;
39566;SDS011;25241;41.978;14.664;2022-10-16T04:00:13;13.55;;;5.63;;
39566;SDS011;25241;41.978;14.664;2022-10-16T04:02:41;15.05;;;5.20;;
39566;SDS011;25241;41.978;14.664;2022-10-16T04:05:09;11.13;;;4.82;;
39566;SDS011;25241;41.978;14.664;2022-10-16T04:07:35;11.85;;;4.95;;
39566;SDS011;25241;41.978;14.664;2022-10-16T04:10:00;14.10;;;5.72;;
39566;SDS011;25241;41.978;14.664;2022-10-16T04:12:26;12.82;;;5.00;;
39566;SDS011;25241;41.978;14.664;2022-10-16T04:14:52;13.30;;;4.65;;
39566;SDS011;25241;41.978;14.664;2022-10-16T04:17:20;10.00;;;4.10;;
39566;SDS011;25241;41.978;14.664;2022-10-16T04:19:48;11.07;;;5.05;;
39566;SDS011;25241;41.978;14.664;2022-10-16T04:22:16;11.27;;;4.50;;
39566;SDS011;25241;41.978;14.664;2022-10-16T04:24:42;12.73;;;5.35;;
39566;SDS011;25241;41.978;14.664;2022-10-16T04:27:07;10.27;;;4.30;;
39566;SDS011;25241;41.978;14.664;2022-10-16T04:29:33;17.52;;;6.57;;
39566;SDS011;25241;41.978;14.664;2022-10-16T04:31:58;11.82;;;4.55;;
39566;SDS011;25241;41.978;14.664;2022-10-16T04:34:24;14.70;;;5.88;;
39566;SDS011;25241;41.978;14.664;2022-10-16T04:36:52;14.43;;;5.13;;
39566;SDS011;25241;41.978;14.664;2022-10-16T04:39:20;14.93;;;5.68;;
39566;SDS011;25241;41.978;14.664;2022-10-16T04:41:46;13.90;;;5.63;;
39566;SDS011;25241;41.978;14.664;2022-10-16T04:44:11;13.88;;;4.80;;
39566;SDS011;25241;41.978;14.664;2022-10-16T04:49:34;11.95;;;4.43;;
39566;SDS011;25241;41.978;14.664;2022-10-16T04:51:59;15.95;;;5.13;;
39566;SDS011;25241;41.978;14.664;2022-10-16T04:54:25;10.35;;;4.65;;
39566;SDS011;25241;41.978;14.664;2022-10-16T04:56:50;13.85;;;5.45;;
39566;SDS011;25241;41.978;14.664;2022-10-16T04:59:18;16.77;;;5.85;;
39566;SDS011;25241;41.978;14.664;2022-10-16T05:01:44;21.08;;;5.47;;
39566;SDS011;25241;41.978;14.664;2022-10-16T05:04:13;14.48;;;5.15;;
39566;SDS011;25241;41.978;14.664;2022-10-16T05:06:39;15.55;;;5.65;;
39566;SDS011;25241;41.978;14.664;2022-10-16T05:09:05;11.85;;;5.82;;
39566;SDS011;25241;41.978;14.664;2022-10-16T05:11:31;12.25;;;4.78;;
39566;SDS011;25241;41.978;14.664;2022-10-16T05:13:59;12.90;;;5.18;;
39566;SDS011;25241;41.978;14.664;2022-10-16T05:16:25;16.48;;;5.05;;
39566;SDS011;25241;41.978;14.664;2022-10-16T05:18:51;12.30;;;4.75;;
39566;SDS011;25241;41.978;14.664;2022-10-16T05:21:17;11.80;;;4.30;;
39566;SDS011;25241;41.978;14.664;2022-10-16T05:23:45;15.30;;;6.07;;
39566;SDS011;25241;41.978;14.664;2022-10-16T05:26:11;11.63;;;5.07;;
39566;SDS011;25241;41.978;14.664;2022-10-16T05:28:36;12.60;;;5.35;;
39566;SDS011;25241;41.978;14.664;2022-10-16T05:31:07;29.27;;;8.60;;
39566;SDS011;25241;41.978;14.664;2022-10-16T05:33:37;12.52;;;5.30;;
39566;SDS011;25241;41.978;14.664;2022-10-16T05:36:08;13.05;;;4.68;;
39566;SDS011;25241;41.978;14.664;2022-10-16T05:38:37;14.73;;;6.07;;
39566;SDS011;25241;41.978;14.664;2022-10-16T05:41:03;13.23;;;4.97;;
39566;SDS011;25241;41.978;14.664;2022-10-16T05:43:30;14.13;;;5.75;;
39566;SDS011;25241;41.978;14.664;2022-10-16T05:46:02;12.35;;;4.60;;
39566;SDS011;25241;41.978;14.664;2022-10-16T05:48:31;12.18;;;4.63;;
39566;SDS011;25241;41.978;14.664;2022-10-16T05:53:36;12.75;;;4.80;;
39566;SDS011;25241;41.978;14.664;2022-10-16T05:56:05;12.27;;;4.40;;
39566;SDS011;25241;41.978;14.664;2022-10-16T05:58:32;9.73;;;4.47;;
39566;SDS011;25241;41.978;14.664;2022-10-16T06:01:01;10.18;;;4.35;;
39566;SDS011;25241;41.978;14.664;2022-10-16T06:03:32;13.35;;;4.22;;
39566;SDS011;25241;41.978;14.664;2022-10-16T06:05:58;12.93;;;4.43;;
39566;SDS011;25241;41.978;14.664;2022-10-16T06:08:24;13.45;;;4.18;;
39566;SDS011;25241;41.978;14.664;2022-10-16T06:11:12;12.65;;;4.57;;
39566;SDS011;25241;41.978;14.664;2022-10-16T06:13:40;11.88;;;4.45;;
39566;SDS011;25241;41.978;14.664;2022-10-16T06:16:11;9.27;;;4.32;;
39566;SDS011;25241;41.978;14.664;2022-10-16T06:18:37;7.80;;;3.47;;
39566;SDS011;25241;41.978;14.664;2022-10-16T06:40:41;17.35;;;3.55;;
39566;SDS011;25241;41.978;14.664;2022-10-16T06:43:09;9.30;;;3.45;;
39566;SDS011;25241;41.978;14.664;2022-10-16T06:45:37;7.43;;;3.90;;
39566;SDS011;25241;41.978;14.664;2022-10-16T06:48:05;5.93;;;3.00;;
39566;SDS011;25241;41.978;14.664;2022-10-16T06:50:34;6.05;;;3.22;;
39566;SDS011;25241;41.978;14.664;2022-10-16T06:53:00;7.45;;;2.95;;
39566;SDS011;25241;41.978;14.664;2022-10-16T06:55:25;11.05;;;2.72;;
39566;SDS011;25241;41.978;14.664;2022-10-16T06:57:53;7.13;;;2.95;;
39566;SDS011;25241;41.978;14.664;2022-10-16T07:00:21;10.77;;;3.78;;
39566;SDS011;25241;41.978;14.664;2022-10-16T07:02:49;8.77;;;3.38;;
39566;SDS011;25241;41.978;14.664;2022-10-16T07:05:15;10.02;;;3.85;;
39566;SDS011;25241;41.978;14.664;2022-10-16T07:07:41;8.65;;;3.30;;
39566;SDS011;25241;41.978;14.664;2022-10-16T07:10:09;8.20;;;3.67;;
39566;SDS011;25241;41.978;14.664;2022-10-16T07:12:37;7.05;;;3.47;;
39566;SDS011;25241;41.978;14.664;2022-10-16T07:15:03;5.88;;;2.95;;
39566;SDS011;25241;41.978;14.664;2022-10-16T07:17:29;8.27;;;3.17;;
39566;SDS011;25241;41.978;14.664;2022-10-16T07:19:57;6.10;;;3.15;;
39566;SDS011;25241;41.978;14.664;2022-10-16T07:22:22;7.22;;;3.72;;
39566;SDS011;25241;41.978;14.664;2022-10-16T07:24:48;5.55;;;2.90;;
39566;SDS011;25241;41.978;14.664;2022-10-16T07:27:16;7.90;;;3.17;;
39566;SDS011;25241;41.978;14.664;2022-10-16T07:29:42;11.07;;;3.17;;
39566;SDS011;25241;41.978;14.664;2022-10-16T07:32:10;6.95;;;2.53;;
39566;SDS011;25241;41.978;14.664;2022-10-16T07:34:35;6.93;;;3.03;;
39566;SDS011;25241;41.978;14.664;2022-10-16T07:37:01;13.35;;;3.22;;
39566;SDS011;25241;41.978;14.664;2022-10-16T07:39:29;5.78;;;2.58;;
39566;SDS011;25241;41.978;14.664;2022-10-16T07:41:55;6.68;;;2.95;;
39566;SDS011;25241;41.978;14.664;2022-10-16T07:44:21;8.18;;;2.65;;
39566;SDS011;25241;41.978;14.664;2022-10-16T07:46:46;5.35;;;2.72;;
39566;SDS011;25241;41.978;14.664;2022-10-16T07:49:12;5.80;;;2.58;;
39566;SDS011;25241;41.978;14.664;2022-10-16T07:54:04;6.65;;;2.83;;
39566;SDS011;25241;41.978;14.664;2022-10-16T07:56:32;5.25;;;2.47;;
39566;SDS011;25241;41.978;14.664;2022-10-16T07:58:58;7.90;;;2.75;;
39566;SDS011;25241;41.978;14.664;2022-10-16T08:01:23;5.65;;;2.80;;
39566;SDS011;25241;41.978;14.664;2022-10-16T08:03:51;6.28;;;2.88;;
39566;SDS011;25241;41.978;14.664;2022-10-16T08:06:17;6.38;;;2.63;;
39566;SDS011;25241;41.978;14.664;2022-10-16T08:08:46;8.90;;;3.10;;
39566;SDS011;25241;41.978;14.664;2022-10-16T08:11:16;4.72;;;2.50;;
39566;SDS011;25241;41.978;14.664;2022-10-16T08:13:42;10.13;;;3.08;;
39566;SDS011;25241;41.978;14.664;2022-10-16T08:16:10;6.38;;;2.72;;
39566;SDS011;25241;41.978;14.664;2022-10-16T08:18:39;5.38;;;2.38;;
39566;SDS011;25241;41.978;14.664;2022-10-16T08:21:06;7.20;;;2.80;;
39566;SDS011;25241;41.978;14.664;2022-10-16T08:23:32;5.93;;;2.88;;
39566;SDS011;25241;41.978;14.664;2022-10-16T08:26:03;8.45;;;2.83;;
39566;SDS011;25241;41.978;14.664;2022-10-16T08:28:30;5.30;;;2.58;;
39566;SDS011;25241;41.978;14.664;2022-10-16T08:30:56;4.60;;;2.55;;
39566;SDS011;25241;41.978;14.664;2022-10-16T08:33:32;5.38;;;2.60;;
39566;SDS011;25241;41.978;14.664;2022-10-16T08:36:00;6.40;;;2.65;;
39566;SDS011;25241;41.978;14.664;2022-10-16T08:38:26;3.67;;;2.20;;
39566;SDS011;25241;41.978;14.664;2022-10-16T08:40:54;9.25;;;2.15;;
39566;SDS011;25241;41.978;14.664;2022-10-16T08:49:15;6.03;;;2.35;;
39566;SDS011;25241;41.978;14.664;2022-10-16T08:51:41;8.85;;;2.83;;
39566;SDS011;25241;41.978;14.664;2022-10-16T08:56:57;6.03;;;2.47;;
39566;SDS011;25241;41.978;14.664;2022-10-16T08:59:32;7.38;;;2.33;;
39566;SDS011;25241;41.978;14.664;2022-10-16T09:01:58;5.40;;;2.63;;
39566;SDS011;25241;41.978;14.664;2022-10-16T09:15:14;5.70;;;2.50;;
39566;SDS011;25241;41.978;14.664;2022-10-16T09:17:56;5.35;;;2.33;;
39566;SDS011;25241;41.978;14.664;2022-10-16T09:20:49;4.70;;;2.20;;
39566;SDS011;25241;41.978;14.664;2022-10-16T09:23:22;7.47;;;2.22;;
39566;SDS011;25241;41.978;14.664;2022-10-16T09:25:54;7.88;;;2.70;;
39566;SDS011;25241;41.978;14.664;2022-10-16T09:28:20;5.20;;;2.72;;
39566;SDS011;25241;41.978;14.664;2022-10-16T09:30:46;6.93;;;2.90;;
39566;SDS011;25241;41.978;14.664;2022-10-16T09:33:14;6.85;;;2.67;;
39566;SDS011;25241;41.978;14.664;2022-10-16T09:35:48;5.93;;;2.65;;
39566;SDS011;25241;41.978;14.664;2022-10-16T09:38:48;7.65;;;3.05;;
39566;SDS011;25241;41.978;14.664;2022-10-16T09:43:42;6.18;;;3.08;;
39566;SDS011;25241;41.978;14.664;2022-10-16T09:46:35;6.78;;;3.08;;
39566;SDS011;25241;41.978;14.664;2022-10-16T09:49:49;4.68;;;2.63;;
39566;SDS011;25241;41.978;14.664;2022-10-16T09:52:02;6.20;;;3.40;;
39566;SDS011;25241;41.978;14.664;2022-10-16T09:54:32;5.60;;;2.55;;
39566;SDS011;25241;41.978;14.664;2022-10-16T09:57:04;6.10;;;2.47;;
39566;SDS011;25241;41.978;14.664;2022-10-16T09:59:31;5.38;;;2.20;;
39566;SDS011;25241;41.978;14.664;2022-10-16T10:02:00;6.38;;;2.40;;
39566;SDS011;25241;41.978;14.664;2022-10-16T10:04:36;7.45;;;2.75;;
39566;SDS011;25241;41.978;14.664;2022-10-16T10:07:03;6.00;;;2.88;;
39566;SDS011;25241;41.978;14.664;2022-10-16T10:09:31;4.60;;;2.38;;
39566;SDS011;25241;41.978;14.664;2022-10-16T10:12:03;5.13;;;2.50;;
39566;SDS011;25241;41.978;14.664;2022-10-16T10:14:32;5.50;;;2.78;;
39566;SDS011;25241;41.978;14.664;2022-10-16T10:22:31;11.38;;;2.72;;
39566;SDS011;25241;41.978;14.664;2022-10-16T10:28:05;6.50;;;2.30;;
39566;SDS011;25241;41.978;14.664;2022-10-16T10:30:56;5.75;;;2.47;;
39566;SDS011;25241;41.978;14.664;2022-10-16T10:34:01;6.28;;;3.35;;
39566;SDS011;25241;41.978;14.664;2022-10-16T10:36:51;9.60;;;2.65;;
39566;SDS011;25241;41.978;14.664;2022-10-16T10:39:54;7.65;;;2.38;;
39566;SDS011;25241;41.978;14.664;2022-10-16T10:42:38;3.63;;;2.10;;
39566;SDS011;25241;41.978;14.664;2022-10-16T10:45:18;5.63;;;2.45;;
39566;SDS011;25241;41.978;14.664;2022-10-16T10:47:58;8.20;;;2.65;;
39566;SDS011;25241;41.978;14.664;2022-10-16T10:50:38;3.65;;;2.03;;
39566;SDS011;25241;41.978;14.664;2022-10-16T11:06:31;4.68;;;2.13;;
39566;SDS011;25241;41.978;14.664;2022-10-16T11:09:22;9.02;;;2.88;;
39566;SDS011;25241;41.978;14.664;2022-10-16T11:14:34;4.35;;;2.17;;
39566;SDS011;25241;41.978;14.664;2022-10-16T11:17:05;5.47;;;2.35;;
39566;SDS011;25241;41.978;14.664;2022-10-16T11:19:41;5.13;;;2.45;;
39566;SDS011;25241;41.978;14.664;2022-10-16T11:27:39;6.40;;;2.97;;
39566;SDS011;25241;41.978;14.664;2022-10-16T11:30:06;6.90;;;3.38;;
39566;SDS011;25241;41.978;14.664;2022-10-16T11:35:25;8.43;;;3.60;;
39566;SDS011;25241;41.978;14.664;2022-10-16T12:03:41;8.57;;;4.40;;
39566;SDS011;25241;41.978;14.664;2022-10-16T12:06:18;28.30;;;4.40;;
39566;SDS011;25241;41.978;14.664;2022-10-16T12:09:05;10.88;;;3.65;;
39566;SDS011;25241;41.978;14.664;2022-10-16T12:11:33;9.60;;;3.75;;
39566;SDS011;25241;41.978;14.664;2022-10-16T12:14:17;11.50;;;3.90;;
39566;SDS011;25241;41.978;14.664;2022-10-16T12:29:41;8.63;;;3.28;;
39566;SDS011;25241;41.978;14.664;2022-10-16T12:39:49;13.70;;;3.00;;
39566;SDS011;25241;41.978;14.664;2022-10-16T12:44:53;6.43;;;3.05;;
39566;SDS011;25241;41.978;14.664;2022-10-16T12:47:23;5.75;;;2.83;;
39566;SDS011;25241;41.978;14.664;2022-10-16T12:49:53;6.13;;;2.70;;
39566;SDS011;25241;41.978;14.664;2022-10-16T12:52:35;7.53;;;2.72;;
39566;SDS011;25241;41.978;14.664;2022-10-16T12:55:09;9.23;;;3.03;;
39566;SDS011;25241;41.978;14.664;2022-10-16T14:38:38;13.43;;;5.72;;
39566;SDS011;25241;41.978;14.664;2022-10-16T14:41:04;15.38;;;5.63;;
39566;SDS011;25241;41.978;14.664;2022-10-16T14:43:40;16.33;;;5.88;;
39566;SDS011;25241;41.978;14.664;2022-10-16T14:46:15;13.77;;;5.88;;
39566;SDS011;25241;41.978;14.664;2022-10-16T14:48:45;18.55;;;6.70;;
39566;SDS011;25241;41.978;14.664;2022-10-16T14:51:13;13.55;;;5.60;;
39566;SDS011;25241;41.978;14.664;2022-10-16T18:06:16;28.25;;;8.57;;
39566;SDS011;25241;41.978;14.664;2022-10-16T18:08:42;21.23;;;8.20;;
39566;SDS011;25241;41.978;14.664;2022-10-16T18:11:10;20.15;;;7.78;;
39566;SDS011;25241;41.978;14.664;2022-10-16T18:13:38;23.90;;;8.82;;
39566;SDS011;25241;41.978;14.664;2022-10-16T18:16:09;22.90;;;8.68;;
39566;SDS011;25241;41.978;14.664;2022-10-16T18:18:39;21.95;;;8.63;;
39566;SDS011;25241;41.978;14.664;2022-10-16T18:21:08;29.15;;;9.63;;
39566;SDS011;25241;41.978;14.664;2022-10-16T18:23:39;30.55;;;11.88;;
39566;SDS011;25241;41.978;14.664;2022-10-16T18:26:05;29.55;;;11.65;;
39566;SDS011;25241;41.978;14.664;2022-10-16T18:28:32;30.48;;;10.93;;
39566;SDS011;25241;41.978;14.664;2022-10-16T18:31:02;25.70;;;9.65;;
39566;SDS011;25241;41.978;14.664;2022-10-16T18:33:38;24.13;;;8.25;;
39566;SDS011;25241;41.978;14.664;2022-10-16T18:36:05;23.95;;;8.65;;
39566;SDS011;25241;41.978;14.664;2022-10-16T18:38:33;25.55;;;8.77;;
39566;SDS011;25241;41.978;14.664;2022-10-16T18:40:59;24.83;;;9.38;;
39566;SDS011;25241;41.978;14.664;2022-10-16T18:43:30;26.60;;;9.15;;
39566;SDS011;25241;41.978;14.664;2022-10-16T18:46:00;20.77;;;8.02;;
39566;SDS011;25241;41.978;14.664;2022-10-16T18:48:27;22.77;;;8.85;;
39566;SDS011;25241;41.978;14.664;2022-10-16T18:51:04;19.92;;;8.68;;
39566;SDS011;25241;41.978;14.664;2022-10-16T18:53:45;19.75;;;7.97;;
39566;SDS011;25241;41.978;14.664;2022-10-16T18:56:12;20.17;;;8.15;;
39566;SDS011;25241;41.978;14.664;2022-10-16T18:58:40;18.60;;;7.72;;
39566;SDS011;25241;41.978;14.664;2022-10-16T19:01:08;21.88;;;9.32;;
39566;SDS011;25241;41.978;14.664;2022-10-16T19:03:35;20.60;;;8.40;;
39566;SDS011;25241;41.978;14.664;2022-10-16T19:06:04;27.88;;;9.80;;
39566;SDS011;25241;41.978;14.664;2022-10-16T19:08:34;22.60;;;7.82;;
39566;SDS011;25241;41.978;14.664;2022-10-16T19:11:10;23.70;;;8.43;;
39566;SDS011;25241;41.978;14.664;2022-10-16T19:13:37;26.67;;;8.38;;
39566;SDS011;25241;41.978;14.664;2022-10-16T19:16:07;18.67;;;7.72;;
39566;SDS011;25241;41.978;14.664;2022-10-16T19:18:37;22.08;;;7.80;;
39566;SDS011;25241;41.978;14.664;2022-10-16T19:21:09;19.10;;;7.95;;
39566;SDS011;25241;41.978;14.664;2022-10-16T19:23:35;20.58;;;6.47;;
39566;SDS011;25241;41.978;14.664;2022-10-16T19:26:12;10.50;;;5.05;;
39566;SDS011;25241;41.978;14.664;2022-10-16T19:28:41;11.50;;;4.82;;
39566;SDS011;25241;41.978;14.664;2022-10-16T19:31:10;17.02;;;5.25;;
39566;SDS011;25241;41.978;14.664;2022-10-16T19:33:37;12.15;;;5.20;;
39566;SDS011;25241;41.978;14.664;2022-10-16T19:36:14;11.50;;;4.75;;
39566;SDS011;25241;41.978;14.664;2022-10-16T19:38:46;15.93;;;5.40;;
39566;SDS011;25241;41.978;14.664;2022-10-16T19:41:15;12.27;;;5.65;;
39566;SDS011;25241;41.978;14.664;2022-10-16T19:43:41;9.40;;;4.43;;
39566;SDS011;25241;41.978;14.664;2022-10-16T19:46:08;11.30;;;4.78;;
39566;SDS011;25241;41.978;14.664;2022-10-16T19:48:35;11.93;;;5.82;;
39566;SDS011;25241;41.978;14.664;2022-10-16T19:51:03;12.75;;;4.53;;
39566;SDS011;25241;41.978;14.664;2022-10-16T19:53:30;14.73;;;5.03;;
39566;SDS011;25241;41.978;14.664;2022-10-16T19:55:56;11.23;;;5.50;;
39566;SDS011;25241;41.978;14.664;2022-10-16T19:58:25;18.02;;;6.30;;
39566;SDS011;25241;41.978;14.664;2022-10-16T20:00:51;21.17;;;7.07;;
39566;SDS011;25241;41.978;14.664;2022-10-16T20:03:20;14.98;;;6.28;;
39566;SDS011;25241;41.978;14.664;2022-10-16T20:05:55;22.08;;;7.13;;
39566;SDS011;25241;41.978;14.664;2022-10-16T20:08:21;17.00;;;6.50;;
39566;SDS011;25241;41.978;14.664;2022-10-16T20:10:50;14.43;;;5.82;;
39566;SDS011;25241;41.978;14.664;2022-10-16T20:13:17;7.95;;;3.83;;
39566;SDS011;25241;41.978;14.664;2022-10-16T20:15:46;11.18;;;3.97;;
39566;SDS011;25241;41.978;14.664;2022-10-16T20:18:12;10.25;;;3.55;;
39566;SDS011;25241;41.978;14.664;2022-10-16T20:20:42;9.68;;;3.22;;
39566;SDS011;25241;41.978;14.664;2022-10-16T20:23:11;9.27;;;3.85;;
39566;SDS011;25241;41.978;14.664;2022-10-16T20:25:39;8.65;;;3.30;;
39566;SDS011;25241;41.978;14.664;2022-10-16T20:28:06;8.67;;;2.93;;
39566;SDS011;25241;41.978;14.664;2022-10-16T20:30:37;10.05;;;2.85;;
39566;SDS011;25241;41.978;14.664;2022-10-16T20:33:06;6.47;;;3.10;;
39566;SDS011;25241;41.978;14.664;2022-10-16T20:35:39;11.75;;;5.28;;
39566;SDS011;25241;41.978;14.664;2022-10-16T20:38:07;8.70;;;3.67;;
39566;SDS011;25241;41.978;14.664;2022-10-16T20:40:33;11.88;;;2.90;;
39566;SDS011;25241;41.978;14.664;2022-10-16T20:43:02;7.32;;;2.97;;
39566;SDS011;25241;41.978;14.664;2022-10-16T20:45:31;9.85;;;3.30;;
39566;SDS011;25241;41.978;14.664;2022-10-16T20:47:59;5.97;;;3.03;;
39566;SDS011;25241;41.978;14.664;2022-10-16T20:50:30;8.63;;;2.80;;
39566;SDS011;25241;41.978;14.664;2022-10-16T20:52:56;9.98;;;4.00;;
39566;SDS011;25241;41.978;14.664;2022-10-16T20:55:23;12.18;;;4.25;;
39566;SDS011;25241;41.978;14.664;2022-10-16T20:57:48;13.38;;;3.80;;
39566;SDS011;25241;41.978;14.664;2022-10-16T21:00:14;10.05;;;4.38;;
39566;SDS011;25241;41.978;14.664;2022-10-16T21:02:40;7.82;;;3.30;;
39566;SDS011;25241;41.978;14.664;2022-10-16T21:05:06;9.13;;;3.53;;
39566;SDS011;25241;41.978;14.664;2022-10-16T21:07:32;6.13;;;3.03;;
39566;SDS011;25241;41.978;14.664;2022-10-16T21:10:00;7.20;;;3.17;;
39566;SDS011;25241;41.978;14.664;2022-10-16T21:12:25;12.00;;;3.40;;
39566;SDS011;25241;41.978;14.664;2022-10-16T21:14:54;8.48;;;4.05;;
39566;SDS011;25241;41.978;14.664;2022-10-16T21:17:22;11.00;;;3.65;;
39566;SDS011;25241;41.978;14.664;2022-10-16T21:19:50;9.60;;;3.10;;
39566;SDS011;25241;41.978;14.664;2022-10-16T21:22:15;13.20;;;3.33;;
39566;SDS011;25241;41.978;14.664;2022-10-16T21:24:41;8.23;;;3.83;;
39566;SDS011;25241;41.978;14.664;2022-10-16T21:27:07;9.40;;;3.92;;
39566;SDS011;25241;41.978;14.664;2022-10-16T21:29:32;10.95;;;3.20;;
39566;SDS011;25241;41.978;14.664;2022-10-16T21:31:58;9.80;;;3.58;;
39566;SDS011;25241;41.978;14.664;2022-10-16T21:34:24;6.90;;;2.92;;
39566;SDS011;25241;41.978;14.664;2022-10-16T21:36:49;6.55;;;3.40;;
39566;SDS011;25241;41.978;14.664;2022-10-16T21:39:16;8.63;;;3.40;;
39566;SDS011;25241;41.978;14.664;2022-10-16T21:41:44;9.02;;;3.83;;
39566;SDS011;25241;41.978;14.664;2022-10-16T21:44:11;11.35;;;4.13;;
39566;SDS011;25241;41.978;14.664;2022-10-16T21:46:38;10.73;;;3.22;;
39566;SDS011;25241;41.978;14.664;2022-10-16T21:49:08;12.52;;;3.45;;
39566;SDS011;25241;41.978;14.664;2022-10-16T21:51:37;7.20;;;3.42;;
39566;SDS011;25241;41.978;14.664;2022-10-16T21:54:06;6.28;;;2.90;;
39566;SDS011;25241;41.978;14.664;2022-10-16T21:56:34;10.00;;;2.53;;
39566;SDS011;25241;41.978;14.664;2022-10-16T21:59:00;12.13;;;3.35;;
39566;SDS011;25241;41.978;14.664;2022-10-16T22:01:26;8.05;;;3.05;;
39566;SDS011;25241;41.978;14.664;2022-10-16T22:03:52;6.07;;;3.10;;
39566;SDS011;25241;41.978;14.664;2022-10-16T22:06:19;9.65;;;2.80;;
39566;SDS011;25241;41.978;14.664;2022-10-16T22:08:46;14.77;;;3.10;;